»·PEaware :: N7355A KLAX-KSNA

N7355A :: KLAX-KSNA

FLIGHT INFORMATION

Flight Status: Arrived
Operator: Privately registered:
United States
More flights under this callsign
Pilot: Monte T. (31546)
Aircraft: CESSNA 172 SKYHAWK
(C172)
More flights by this aircraft type
Origin: KLAX Los Angeles Intl
United States
Destination: KSNA John Wayne-Orange Co
United States
More flights between these airports :: More routes between these airports
Route: SLI8 SLI
File this flight plan on PilotEdge
Remarks:
Altitude:
(Current/Filed)
4,000ft
Speed:
(Current/Filed)
120kts
Departed: 30-Nov-20 12:55 PM
Arrived: 30-Nov-20 01:33 PM
Distance/Time
Traveled:
31nm/0:38
Distance/Time
To Go:
Arrived

Flight Plot

Page will automatically refresh every two minutes.

Flight plan parsing failed; only flown route is shown


Map Options




Map Legend


Flown Route
Filed Route
Departure Airport
Arrival Airport
Navaid (VOR, NDB)
Fix

Horizontal Profiles

Position Reports

Time Latitude Longitude Heading Altitude Ground
Speed
30-Nov-20 12:36 33.933634 -118.399303 174 111ft 0kts
30-Nov-20 12:37 33.933634 -118.399303 174 111ft 0kts
30-Nov-20 12:37 33.933634 -118.399303 174 111ft 0kts
30-Nov-20 12:38 33.933634 -118.399303 174 111ft 0kts
30-Nov-20 12:39 33.933634 -118.399303 174 111ft 0kts
30-Nov-20 12:41 33.933634 -118.399303 174 111ft 0kts
30-Nov-20 12:41 33.933634 -118.399303 174 111ft 0kts
30-Nov-20 12:42 33.933634 -118.399303 174 111ft 0kts
30-Nov-20 12:43 33.933634 -118.399303 174 111ft 0kts
30-Nov-20 12:44 33.933634 -118.399303 174 111ft 0kts
30-Nov-20 12:45 33.933634 -118.399303 174 111ft 0kts
30-Nov-20 12:46 33.933634 -118.399303 174 111ft 0kts
30-Nov-20 12:47 33.933634 -118.399303 174 111ft 0kts
30-Nov-20 12:48 33.933634 -118.399303 174 111ft 0kts
30-Nov-20 12:49 33.934508 -118.398008 51 109ft 9kts
30-Nov-20 12:50 33.935209 -118.391691 82 102ft 25kts
30-Nov-20 12:51 33.936045 -118.383583 82 97ft 20kts
30-Nov-20 12:52 33.936520 -118.382860 353 96ft 0kts
30-Nov-20 12:53 33.936520 -118.382860 353 96ft 0kts
30-Nov-20 12:54 33.936722 -118.388766 263 111ft 78kts
30-Nov-20 12:55 33.933619 -118.418552 262 937ft 98kts
30-Nov-20 12:56 33.923574 -118.447877 213 1742ft 101kts
30-Nov-20 12:57 33.897497 -118.454350 171 2542ft 99kts
30-Nov-20 12:58 33.870503 -118.449376 171 3340ft 97kts
30-Nov-20 12:59 33.844102 -118.444500 171 3998ft 106kts
30-Nov-20 13:00 33.813133 -118.430333 142 4000ft 129kts
30-Nov-20 13:01 33.784730 -118.403484 141 4000ft 130kts
30-Nov-20 13:02 33.756164 -118.376463 141 4000ft 130kts
30-Nov-20 13:03 33.727695 -118.349531 141 4000ft 130kts
30-Nov-20 13:04 33.703119 -118.319208 89 3996ft 130kts
30-Nov-20 13:05 33.720057 -118.281176 59 4000ft 130kts
30-Nov-20 13:06 33.737910 -118.243224 61 4000ft 130kts
30-Nov-20 13:07 33.754166 -118.204053 65 3999ft 130kts
30-Nov-20 13:08 33.767938 -118.163763 69 3999ft 130kts
30-Nov-20 13:09 33.777787 -118.121859 77 3999ft 130kts
30-Nov-20 13:10 33.783398 -118.078519 81 3999ft 130kts
30-Nov-20 13:11 33.791455 -118.036186 67 4000ft 130kts
30-Nov-20 13:12 33.806773 -117.996611 64 4000ft 130kts
30-Nov-20 13:13 33.822607 -117.957221 64 4000ft 130kts
30-Nov-20 13:14 33.838441 -117.917816 64 3999ft 130kts
30-Nov-20 13:15 33.854205 -117.878539 64 3999ft 130kts
30-Nov-20 13:16 33.869993 -117.839157 64 4000ft 130kts
30-Nov-20 13:17 33.885778 -117.799736 64 4000ft 130kts
30-Nov-20 13:18 33.901567 -117.760259 64 4000ft 130kts
30-Nov-20 13:19 33.917294 -117.720892 64 3999ft 130kts
30-Nov-20 13:20 33.946956 -117.696953 27 4000ft 130kts
30-Nov-20 13:21 33.979884 -117.680612 343 3996ft 130kts
30-Nov-20 13:22 33.973892 -117.709042 186 4000ft 130kts
30-Nov-20 13:23 33.937678 -117.711916 183 3999ft 130kts
30-Nov-20 13:24 33.902775 -117.723798 210 3689ft 141kts
30-Nov-20 13:25 33.870546 -117.744980 207 3400ft 130kts
30-Nov-20 13:26 33.838192 -117.765680 207 3261ft 140kts
30-Nov-20 13:27 33.804178 -117.787372 207 2461ft 137kts
30-Nov-20 13:28 33.772599 -117.807356 207 2198ft 117kts
30-Nov-20 13:29 33.741199 -117.827516 208 1359ft 132kts
30-Nov-20 13:30 33.710471 -117.847049 207 749ft 115kts
30-Nov-20 13:31 33.685635 -117.862582 207 200ft 76kts
30-Nov-20 13:32 33.678086 -117.868383 276 60ft 0kts
30-Nov-20 13:33 33.677178 -117.869388 207 60ft 16kts
30-Nov-20 13:34 33.675973 -117.871025 215 60ft 0kts

Navigation Log

Ident Type
Flight plan parsing failed, navigation log unavailable